Time;durP1;ratioP1;P1;durP2;ratioP2;P2;SDS_P1;SDS_P2;PMS_P1;PMS_P2;Temp;Humidity;BMP_temperature;BMP_pressure;BME280_temperature;BME280_humidity;BME280_pressure;Samples;Min_cycle;Max_cycle;Signal;HPM_P1;HPM_P2
2023/04/14 00:00:22;;;;;;;10.20;3.00;;;;;;;;;;5003593;28;92846;-69
2023/04/14 00:02:49;;;;;;;6.05;2.28;;;;;;;;;;5002592;28;93364;-69
2023/04/14 00:05:16;;;;;;;7.25;2.53;;;;;;;;;;4996660;28;95554;-69
2023/04/14 00:07:42;;;;;;;6.88;2.58;;;;;;;;;;5004245;28;92457;-69
2023/04/14 00:10:09;;;;;;;8.82;2.42;;;;;;;;;;5003324;28;93139;-69
2023/04/14 00:12:35;;;;;;;6.20;2.53;;;;;;;;;;4995260;28;94486;-69
2023/04/14 00:15:01;;;;;;;5.82;2.35;;;;;;;;;;4992153;28;93266;-69
2023/04/14 00:17:29;;;;;;;10.15;2.47;;;;;;;;;;4993582;28;93434;-69
2023/04/14 00:19:55;;;;;;;7.93;2.95;;;;;;;;;;5009691;28;92439;-68
2023/04/14 00:22:22;;;;;;;9.10;3.22;;;;;;;;;;5003289;28;93118;-68
2023/04/14 00:24:49;;;;;;;7.32;2.58;;;;;;;;;;5000758;28;94795;-68
2023/04/14 00:27:16;;;;;;;5.28;2.40;;;;;;;;;;4998918;28;93066;-69
2023/04/14 00:29:42;;;;;;;8.98;2.75;;;;;;;;;;4990826;28;94979;-68
2023/04/14 00:32:08;;;;;;;8.65;3.00;;;;;;;;;;4992436;28;94430;-68
2023/04/14 00:34:35;;;;;;;6.50;2.88;;;;;;;;;;5010347;28;92741;-69
2023/04/14 00:37:01;;;;;;;9.55;3.63;;;;;;;;;;4993598;28;93463;-68
2023/04/14 00:39:27;;;;;;;10.68;3.38;;;;;;;;;;5005096;28;92487;-68
2023/04/14 00:41:54;;;;;;;9.60;3.42;;;;;;;;;;5003557;28;94386;-69
2023/04/14 00:44:21;;;;;;;8.95;3.50;;;;;;;;;;5001456;28;93769;-68
2023/04/14 00:46:48;;;;;;;5.88;2.60;;;;;;;;;;4996640;28;91848;-69
2023/04/14 00:49:14;;;;;;;9.98;3.45;;;;;;;;;;5009005;28;93017;-68
2023/04/14 00:51:42;;;;;;;10.23;3.13;;;;;;;;;;4998835;28;92684;-68
2023/04/14 00:54:09;;;;;;;5.85;2.80;;;;;;;;;;4993155;28;95699;-68
2023/04/14 00:56:35;;;;;;;9.35;3.25;;;;;;;;;;4997657;28;93283;-69
2023/04/14 00:59:02;;;;;;;10.50;3.72;;;;;;;;;;5007711;28;92410;-68
2023/04/14 01:01:28;;;;;;;13.27;4.10;;;;;;;;;;4999606;28;93658;-69
2023/04/14 01:03:56;;;;;;;6.97;3.17;;;;;;;;;;5009406;28;93695;-68
2023/04/14 01:06:22;;;;;;;8.20;3.10;;;;;;;;;;5015628;28;92572;-68
2023/04/14 01:08:49;;;;;;;10.13;3.28;;;;;;;;;;5007186;28;93623;-68
2023/04/14 01:11:18;;;;;;;14.50;3.42;;;;;;;;;;5011809;28;93183;-68
2023/04/14 01:14:02;;;;;;;8.98;3.45;;;;;;;;;;5002954;28;94414;-69
2023/04/14 01:16:31;;;;;;;10.30;2.90;;;;;;;;;;5004537;28;94398;-69
2023/04/14 01:19:16;;;;;;;8.82;3.75;;;;;;;;;;4996696;28;95319;-69
2023/04/14 01:21:45;;;;;;;7.65;3.47;;;;;;;;;;5002335;28;95721;-68
2023/04/14 01:24:30;;;;;;;13.73;3.38;;;;;;;;;;4997524;28;94613;-68
2023/04/14 01:27:01;;;;;;;14.38;3.63;;;;;;;;;;4983643;28;92471;-68
2023/04/14 01:29:46;;;;;;;6.95;3.40;;;;;;;;;;4995917;28;93219;-68
2023/04/14 01:32:17;;;;;;;5.85;3.47;;;;;;;;;;5010836;28;94822;-68
2023/04/14 01:34:52;;;;;;;6.13;3.40;;;;;;;;;;5014752;28;92573;-68
2023/04/14 01:37:24;;;;;;;9.13;3.90;;;;;;;;;;5000359;28;94249;-68
2023/04/14 01:39:52;;;;;;;8.85;3.78;;;;;;;;;;5016905;28;93401;-69
2023/04/14 01:42:20;;;;;;;9.85;3.58;;;;;;;;;;5015622;28;93104;-68
2023/04/14 01:44:47;;;;;;;10.75;3.83;;;;;;;;;;4999780;28;97643;-68
2023/04/14 01:47:16;;;;;;;9.15;3.78;;;;;;;;;;4994787;28;92521;-68
2023/04/14 01:49:43;;;;;;;7.55;3.63;;;;;;;;;;5009772;28;93306;-68
2023/04/14 01:52:12;;;;;;;6.15;3.53;;;;;;;;;;4995046;28;93442;-68
2023/04/14 01:54:39;;;;;;;12.73;4.22;;;;;;;;;;4995439;28;92479;-68
2023/04/14 01:57:06;;;;;;;12.50;4.18;;;;;;;;;;5008169;28;94305;-68
2023/04/14 01:59:33;;;;;;;8.43;4.18;;;;;;;;;;5003913;28;94605;-68
2023/04/14 02:02:01;;;;;;;9.63;4.45;;;;;;;;;;4998509;28;91849;-68
2023/04/14 02:04:28;;;;;;;11.63;4.35;;;;;;;;;;5007634;28;94582;-68
2023/04/14 02:06:56;;;;;;;9.77;4.45;;;;;;;;;;4994879;28;92655;-68
2023/04/14 02:09:24;;;;;;;10.43;4.53;;;;;;;;;;5006423;28;95721;-68
2023/04/14 02:11:50;;;;;;;10.80;4.75;;;;;;;;;;5010000;28;94430;-68
2023/04/14 02:14:18;;;;;;;16.10;4.97;;;;;;;;;;4997684;28;92514;-68
2023/04/14 02:16:46;;;;;;;10.82;5.25;;;;;;;;;;5003957;28;93000;-68
2023/04/14 02:19:15;;;;;;;14.38;5.35;;;;;;;;;;5003384;28;93836;-68
2023/04/14 02:21:42;;;;;;;12.73;5.15;;;;;;;;;;4997113;28;92599;-68
2023/04/14 02:24:08;;;;;;;13.95;5.78;;;;;;;;;;5005103;28;94494;-68
2023/04/14 02:26:36;;;;;;;11.35;5.72;;;;;;;;;;4992683;28;92101;-68
2023/04/14 02:29:12;;;;;;;15.18;5.90;;;;;;;;;;5004618;28;92458;-68
2023/04/14 02:31:44;;;;;;;14.30;5.63;;;;;;;;;;4993838;28;93954;-68
2023/04/14 02:34:12;;;;;;;14.10;5.57;;;;;;;;;;5002604;28;96187;-68
2023/04/14 02:36:40;;;;;;;11.30;5.72;;;;;;;;;;4997244;28;95552;-68
2023/04/14 02:39:18;;;;;;;13.60;5.57;;;;;;;;;;4998483;28;93436;-68
2023/04/14 02:41:45;;;;;;;10.73;5.57;;;;;;;;;;4995826;28;92575;-68
2023/04/14 02:44:20;;;;;;;17.73;6.30;;;;;;;;;;4992274;28;94288;-68
2023/04/14 02:46:52;;;;;;;15.35;5.80;;;;;;;;;;5005022;28;93583;-68
2023/04/14 02:49:20;;;;;;;14.18;6.07;;;;;;;;;;5003886;28;94287;-68
2023/04/14 02:51:46;;;;;;;18.25;5.97;;;;;;;;;;5001198;28;92705;-68
2023/04/14 02:54:14;;;;;;;19.42;6.15;;;;;;;;;;5002191;28;92571;-69
2023/04/14 02:56:40;;;;;;;11.07;5.50;;;;;;;;;;5005983;28;93403;-68
2023/04/14 02:59:07;;;;;;;12.02;5.07;;;;;;;;;;4995660;28;96821;-69
2023/04/14 03:01:34;;;;;;;12.32;5.82;;;;;;;;;;5012833;28;92834;-69
2023/04/14 03:04:01;;;;;;;13.07;5.45;;;;;;;;;;4999435;28;93709;-69
2023/04/14 03:06:27;;;;;;;10.15;5.00;;;;;;;;;;5011757;28;93357;-68
2023/04/14 03:08:54;;;;;;;18.65;5.32;;;;;;;;;;4993840;28;93256;-68
2023/04/14 03:11:21;;;;;;;11.13;5.28;;;;;;;;;;5000923;28;93274;-69
2023/04/14 03:13:50;;;;;;;14.55;5.65;;;;;;;;;;5002155;28;92513;-69
2023/04/14 03:16:18;;;;;;;11.95;5.47;;;;;;;;;;4999038;28;93461;-69
2023/04/14 03:18:46;;;;;;;14.82;6.18;;;;;;;;;;4994175;28;95020;-69
2023/04/14 03:21:15;;;;;;;13.95;5.43;;;;;;;;;;4996712;28;92512;-69
2023/04/14 03:23:42;;;;;;;15.10;4.45;;;;;;;;;;4987182;28;95030;-69
2023/04/14 03:26:10;;;;;;;11.63;4.82;;;;;;;;;;4981303;28;93414;-71
2023/04/14 03:28:38;;;;;;;16.42;5.57;;;;;;;;;;5015080;28;92408;-69
2023/04/14 03:31:05;;;;;;;10.80;5.40;;;;;;;;;;5010415;28;93406;-69
2023/04/14 03:33:32;;;;;;;12.00;5.05;;;;;;;;;;5012351;28;92523;-70
2023/04/14 03:35:59;;;;;;;17.20;5.68;;;;;;;;;;5012049;28;93960;-70
2023/04/14 03:38:26;;;;;;;8.40;5.15;;;;;;;;;;4999695;28;93309;-69
2023/04/14 03:40:56;;;;;;;15.43;5.60;;;;;;;;;;5002581;28;91952;-69
2023/04/14 03:43:23;;;;;;;20.13;6.40;;;;;;;;;;4997839;28;93517;-69
2023/04/14 03:45:50;;;;;;;12.27;4.20;;;;;;;;;;5013940;28;92976;-69
2023/04/14 03:48:19;;;;;;;13.45;5.30;;;;;;;;;;4992189;28;94898;-69
2023/04/14 03:50:46;;;;;;;10.55;4.90;;;;;;;;;;4998190;28;95745;-69
2023/04/14 03:53:15;;;;;;;16.02;5.18;;;;;;;;;;5004771;28;92577;-68
2023/04/14 03:55:42;;;;;;;14.95;4.82;;;;;;;;;;5003385;28;93575;-69
2023/04/14 03:58:10;;;;;;;15.00;5.10;;;;;;;;;;5001782;28;93341;-69
2023/04/14 04:00:37;;;;;;;16.15;5.13;;;;;;;;;;5006988;28;93323;-68
2023/04/14 04:03:04;;;;;;;8.60;4.47;;;;;;;;;;5005267;28;92987;-69
2023/04/14 04:05:32;;;;;;;12.75;5.13;;;;;;;;;;4994798;28;92769;-69
2023/04/14 04:08:01;;;;;;;10.68;4.82;;;;;;;;;;5005089;28;92397;-69
2023/04/14 04:10:31;;;;;;;9.95;4.80;;;;;;;;;;5006887;28;94021;-69
2023/04/14 04:12:58;;;;;;;18.47;5.50;;;;;;;;;;5007968;28;97007;-69
2023/04/14 04:15:26;;;;;;;7.20;4.30;;;;;;;;;;4998123;28;95565;-69
2023/04/14 04:17:53;;;;;;;16.35;5.53;;;;;;;;;;4999826;28;94588;-69
2023/04/14 04:20:20;;;;;;;10.18;4.95;;;;;;;;;;5009495;28;92414;-69
2023/04/14 04:22:50;;;;;;;4.57;3.72;;;;;;;;;;5007121;28;93352;-69
2023/04/14 04:25:16;;;;;;;10.43;4.57;;;;;;;;;;5011782;28;93803;-69
2023/04/14 04:27:43;;;;;;;10.48;5.13;;;;;;;;;;4997371;28;92692;-69
2023/04/14 04:30:10;;;;;;;12.48;5.43;;;;;;;;;;4999731;28;93542;-69
2023/04/14 04:32:37;;;;;;;17.35;5.57;;;;;;;;;;5010587;28;93438;-69
2023/04/14 04:35:07;;;;;;;10.93;4.47;;;;;;;;;;5019242;28;92393;-68
2023/04/14 04:37:33;;;;;;;18.63;6.20;;;;;;;;;;5002833;28;95830;-68
2023/04/14 04:40:00;;;;;;;10.38;5.65;;;;;;;;;;5011618;28;92872;-67
2023/04/14 04:42:26;;;;;;;16.33;6.60;;;;;;;;;;5011086;28;93236;-68
2023/04/14 04:44:53;;;;;;;14.23;6.13;;;;;;;;;;4999614;28;93497;-68
2023/04/14 04:47:20;;;;;;;16.30;6.95;;;;;;;;;;5001027;28;92705;-67
2023/04/14 04:49:46;;;;;;;20.08;6.72;;;;;;;;;;5012246;28;93376;-69
2023/04/14 04:52:12;;;;;;;12.65;6.03;;;;;;;;;;4996507;28;92448;-68
2023/04/14 04:54:39;;;;;;;20.63;6.18;;;;;;;;;;5001750;28;91838;-67
2023/04/14 04:57:05;;;;;;;22.30;7.05;;;;;;;;;;5015672;28;93956;-68
2023/04/14 04:59:32;;;;;;;12.57;6.32;;;;;;;;;;5006209;28;92457;-68
2023/04/14 05:01:59;;;;;;;15.07;6.93;;;;;;;;;;5002794;28;95435;-67
2023/04/14 05:04:25;;;;;;;19.25;7.18;;;;;;;;;;5003072;28;93060;-67
2023/04/14 05:06:52;;;;;;;15.75;6.35;;;;;;;;;;5006423;28;92510;-68
2023/04/14 05:09:18;;;;;;;19.77;7.45;;;;;;;;;;5023311;28;94737;-69
2023/04/14 05:11:45;;;;;;;12.40;6.78;;;;;;;;;;5017680;28;94028;-68
2023/04/14 05:14:11;;;;;;;16.23;6.78;;;;;;;;;;5004734;28;92892;-69
2023/04/14 05:16:37;;;;;;;15.43;7.05;;;;;;;;;;5010572;28;94538;-68
2023/04/14 05:19:03;;;;;;;17.02;6.78;;;;;;;;;;5002118;28;91875;-67
2023/04/14 05:21:30;;;;;;;18.13;6.93;;;;;;;;;;5008724;28;93482;-68
2023/04/14 05:23:56;;;;;;;20.85;7.65;;;;;;;;;;5002545;28;93434;-68
2023/04/14 05:26:22;;;;;;;12.45;6.95;;;;;;;;;;5012762;28;95256;-68
2023/04/14 05:29:09;;;;;;;11.02;6.60;;;;;;;;;;4999430;28;95234;-68
2023/04/14 05:31:35;;;;;;;18.10;7.38;;;;;;;;;;4996555;28;93211;-68
2023/04/14 05:34:02;;;;;;;20.77;7.45;;;;;;;;;;5003291;28;92500;-68
2023/04/14 05:36:28;;;;;;;14.77;7.80;;;;;;;;;;5013647;28;93290;-68
2023/04/14 05:38:55;;;;;;;13.60;7.65;;;;;;;;;;5017083;28;93552;-68
2023/04/14 05:41:22;;;;;;;16.10;7.90;;;;;;;;;;5014094;28;94143;-69
2023/04/14 05:43:48;;;;;;;14.93;7.43;;;;;;;;;;5011053;28;94780;-69
2023/04/14 05:46:15;;;;;;;16.40;6.63;;;;;;;;;;5012621;28;92854;-69
2023/04/14 05:48:41;;;;;;;16.60;6.07;;;;;;;;;;5009040;28;93174;-69
2023/04/14 05:51:07;;;;;;;16.63;6.45;;;;;;;;;;5014172;28;95830;-69
2023/04/14 05:53:34;;;;;;;20.83;6.30;;;;;;;;;;5001043;28;92770;-68
2023/04/14 05:56:00;;;;;;;18.08;6.75;;;;;;;;;;4994142;28;93696;-69
2023/04/14 05:58:27;;;;;;;16.73;6.45;;;;;;;;;;5001449;28;93485;-68
2023/04/14 06:00:53;;;;;;;17.30;5.63;;;;;;;;;;5005321;28;94128;-69
2023/04/14 06:03:19;;;;;;;25.40;6.00;;;;;;;;;;4994189;28;93541;-69
2023/04/14 06:05:47;;;;;;;18.48;6.57;;;;;;;;;;5005495;28;92461;-68
2023/04/14 06:08:13;;;;;;;18.40;5.57;;;;;;;;;;4997552;28;93177;-69
2023/04/14 06:10:40;;;;;;;15.95;5.30;;;;;;;;;;5000627;28;93683;-68
2023/04/14 06:13:07;;;;;;;13.32;5.47;;;;;;;;;;5004155;28;93494;-69
2023/04/14 06:15:33;;;;;;;16.73;5.55;;;;;;;;;;4993603;28;94983;-69
2023/04/14 06:18:00;;;;;;;15.90;5.45;;;;;;;;;;5001830;28;93505;-69
2023/04/14 06:20:26;;;;;;;16.65;5.38;;;;;;;;;;5002637;28;93500;-69
2023/04/14 06:22:54;;;;;;;17.33;5.80;;;;;;;;;;4980507;28;92850;-68
2023/04/14 06:25:21;;;;;;;18.52;5.13;;;;;;;;;;4995030;28;92516;-68
2023/04/14 06:27:47;;;;;;;17.27;5.90;;;;;;;;;;4999418;28;93034;-69
2023/04/14 06:30:16;;;;;;;19.85;5.28;;;;;;;;;;5008664;28;93393;-67
2023/04/14 06:32:42;;;;;;;19.42;5.03;;;;;;;;;;4996445;28;91997;-68
2023/04/14 06:35:09;;;;;;;13.70;5.10;;;;;;;;;;5003911;28;92423;-70
2023/04/14 06:37:51;;;;;;;9.68;4.88;;;;;;;;;;5012058;28;93613;-67
2023/04/14 06:40:17;;;;;;;13.25;4.82;;;;;;;;;;4998906;28;96654;-67
2023/04/14 06:42:43;;;;;;;22.25;5.10;;;;;;;;;;5005481;28;95842;-67
2023/04/14 06:45:10;;;;;;;15.65;4.65;;;;;;;;;;5001411;28;93389;-68
2023/04/14 06:47:36;;;;;;;13.27;5.07;;;;;;;;;;4991356;28;94124;-69
2023/04/14 06:50:03;;;;;;;15.77;4.70;;;;;;;;;;4998279;28;93363;-70
2023/04/14 06:52:29;;;;;;;16.92;4.90;;;;;;;;;;4999312;28;92443;-69
2023/04/14 06:54:56;;;;;;;11.18;4.57;;;;;;;;;;5009654;28;93268;-69
2023/04/14 06:57:22;;;;;;;11.23;4.50;;;;;;;;;;5015376;28;92650;-69
2023/04/14 06:59:48;;;;;;;11.10;4.18;;;;;;;;;;5009338;28;92449;-68
2023/04/14 07:02:15;;;;;;;16.67;4.25;;;;;;;;;;5005569;28;93525;-69
2023/04/14 07:04:41;;;;;;;15.73;4.93;;;;;;;;;;5008356;28;96856;-69
2023/04/14 07:07:07;;;;;;;15.95;4.95;;;;;;;;;;5001676;28;92634;-69
2023/04/14 07:09:34;;;;;;;8.43;3.85;;;;;;;;;;5006038;28;93555;-69
2023/04/14 07:12:00;;;;;;;12.65;4.07;;;;;;;;;;5013697;28;92498;-69
2023/04/14 07:14:27;;;;;;;15.48;4.93;;;;;;;;;;5001559;28;94044;-70
2023/04/14 07:16:53;;;;;;;16.35;4.88;;;;;;;;;;4997335;28;93402;-69
2023/04/14 07:19:19;;;;;;;18.45;4.50;;;;;;;;;;4997356;28;92899;-69
2023/04/14 07:21:46;;;;;;;19.63;5.13;;;;;;;;;;4994679;28;93223;-68
2023/04/14 07:24:12;;;;;;;18.15;4.95;;;;;;;;;;4999387;28;92486;-69
2023/04/14 07:26:41;;;;;;;17.67;4.38;;;;;;;;;;4997329;28;92539;-69
2023/04/14 07:29:08;;;;;;;12.20;3.72;;;;;;;;;;4992601;28;95991;-69
2023/04/14 07:31:36;;;;;;;16.92;3.92;;;;;;;;;;4994367;28;92475;-69
2023/04/14 07:34:03;;;;;;;16.13;3.47;;;;;;;;;;5005291;28;93292;-69
2023/04/14 07:36:29;;;;;;;12.32;3.95;;;;;;;;;;5013751;28;93388;-69
2023/04/14 07:38:56;;;;;;;13.55;3.03;;;;;;;;;;5007394;28;92515;-69
2023/04/14 07:41:23;;;;;;;10.10;3.25;;;;;;;;;;5013527;28;94517;-69
2023/04/14 07:43:49;;;;;;;22.00;3.38;;;;;;;;;;5002250;28;93411;-69
2023/04/14 07:46:15;;;;;;;9.88;3.45;;;;;;;;;;4994380;28;91678;-69
2023/04/14 07:48:42;;;;;;;9.27;3.13;;;;;;;;;;4993782;28;92918;-69
2023/04/14 07:51:10;;;;;;;13.20;3.55;;;;;;;;;;4991900;28;92475;-69
2023/04/14 07:53:41;;;;;;;15.65;3.55;;;;;;;;;;4999963;28;95100;-68
2023/04/14 07:56:07;;;;;;;13.32;3.22;;;;;;;;;;5014110;28;94385;-68
2023/04/14 07:58:33;;;;;;;14.40;3.25;;;;;;;;;;5000563;28;92455;-68
2023/04/14 08:01:00;;;;;;;11.30;2.70;;;;;;;;;;4997532;28;93186;-69
2023/04/14 08:03:26;;;;;;;11.77;3.08;;;;;;;;;;4997537;28;94444;-68
2023/04/14 08:05:52;;;;;;;12.10;2.97;;;;;;;;;;4996967;28;92475;-68
2023/04/14 08:08:19;;;;;;;9.63;2.40;;;;;;;;;;4997422;28;92704;-68
2023/04/14 08:10:45;;;;;;;23.00;2.55;;;;;;;;;;5014071;28;92697;-68
2023/04/14 08:13:11;;;;;;;14.00;3.15;;;;;;;;;;5010130;28;92878;-69
2023/04/14 08:15:38;;;;;;;15.57;2.70;;;;;;;;;;5004179;28;93365;-68
2023/04/14 08:18:04;;;;;;;11.23;2.42;;;;;;;;;;5009956;28;94854;-68
2023/04/14 08:20:31;;;;;;;8.18;2.40;;;;;;;;;;5015314;28;95367;-68
2023/04/14 08:22:57;;;;;;;10.95;2.35;;;;;;;;;;4993719;28;93584;-68
2023/04/14 08:25:24;;;;;;;14.32;2.42;;;;;;;;;;4977367;28;93051;-68
2023/04/14 08:27:50;;;;;;;5.88;1.92;;;;;;;;;;4977252;28;93221;-68
2023/04/14 08:30:16;;;;;;;4.88;1.70;;;;;;;;;;4980085;28;93645;-68
2023/04/14 08:32:43;;;;;;;8.32;2.00;;;;;;;;;;5009321;28;92510;-68
2023/04/14 08:35:09;;;;;;;15.05;2.35;;;;;;;;;;4997012;28;92756;-68
2023/04/14 08:37:56;;;;;;;10.55;1.63;;;;;;;;;;5003807;28;93102;-68
2023/04/14 08:40:24;;;;;;;9.48;2.10;;;;;;;;;;4996874;28;93625;-68
2023/04/14 08:42:50;;;;;;;8.07;2.30;;;;;;;;;;4994948;28;96044;-67
2023/04/14 08:45:18;;;;;;;5.85;1.80;;;;;;;;;;4996417;28;92721;-65
2023/04/14 08:47:46;;;;;;;9.95;1.77;;;;;;;;;;4995758;28;93170;-65
2023/04/14 08:50:15;;;;;;;5.13;1.30;;;;;;;;;;4996412;28;92512;-65
2023/04/14 08:52:42;;;;;;;6.55;1.55;;;;;;;;;;4998294;28;92456;-67
2023/04/14 08:55:09;;;;;;;7.38;1.40;;;;;;;;;;4998388;28;93152;-67
2023/04/14 08:57:37;;;;;;;9.55;1.65;;;;;;;;;;5011613;28;92410;-67
2023/04/14 09:00:03;;;;;;;8.38;1.25;;;;;;;;;;5014911;28;93219;-67
2023/04/14 09:02:33;;;;;;;6.57;1.45;;;;;;;;;;5008976;28;93620;-67
2023/04/14 09:05:00;;;;;;;2.97;1.20;;;;;;;;;;5009390;28;92719;-67
2023/04/14 09:07:26;;;;;;;9.05;1.33;;;;;;;;;;5002292;28;95977;-67
2023/04/14 09:09:56;;;;;;;6.05;1.73;;;;;;;;;;5014143;28;92594;-68
2023/04/14 09:12:24;;;;;;;11.85;1.77;;;;;;;;;;5013125;28;92515;-68
2023/04/14 09:14:51;;;;;;;4.95;1.42;;;;;;;;;;5018884;28;92905;-68
2023/04/14 09:17:17;;;;;;;12.13;1.90;;;;;;;;;;5005625;28;92504;-68
2023/04/14 09:19:44;;;;;;;10.40;1.88;;;;;;;;;;5010251;28;92918;-68
2023/04/14 09:22:30;;;;;;;8.70;2.00;;;;;;;;;;4992859;28;94982;-68
2023/04/14 09:24:57;;;;;;;9.20;1.80;;;;;;;;;;4984982;28;92702;-68
2023/04/14 09:27:23;;;;;;;3.53;1.25;;;;;;;;;;4976134;28;92603;-68
2023/04/14 09:29:50;;;;;;;13.02;1.40;;;;;;;;;;4993154;28;92591;-67
2023/04/14 09:32:16;;;;;;;5.03;1.38;;;;;;;;;;5007122;28;95526;-68
2023/04/14 09:34:51;;;;;;;6.15;1.60;;;;;;;;;;5015935;28;95863;-67
2023/04/14 09:37:21;;;;;;;8.65;2.00;;;;;;;;;;5018313;28;93625;-68
2023/04/14 09:39:49;;;;;;;6.10;1.85;;;;;;;;;;5016940;28;94198;-67
2023/04/14 09:42:17;;;;;;;6.43;1.63;;;;;;;;;;5016079;28;93941;-68
2023/04/14 09:44:56;;;;;;;6.13;1.60;;;;;;;;;;5010561;28;92466;-68
2023/04/14 09:47:23;;;;;;;8.35;1.55;;;;;;;;;;5004180;28;94553;-68
2023/04/14 09:50:02;;;;;;;5.22;1.98;;;;;;;;;;5013196;28;93765;-68
2023/04/14 09:52:38;;;;;;;8.02;2.40;;;;;;;;;;5016250;28;92489;-68
2023/04/14 09:55:14;;;;;;;17.00;3.00;;;;;;;;;;5015876;28;94174;-68
2023/04/14 09:57:41;;;;;;;5.95;2.13;;;;;;;;;;4973600;28;96202;-68
2023/04/14 10:00:17;;;;;;;11.43;1.75;;;;;;;;;;4978624;28;92490;-68
2023/04/14 10:02:48;;;;;;;10.63;2.30;;;;;;;;;;4977061;28;93465;-68
2023/04/14 10:05:14;;;;;;;7.05;1.52;;;;;;;;;;5006427;28;92626;-68
2023/04/14 14:43:27;;;;;;;8.23;1.92;;;;;;;;;;5094248;27;86416;-71
2023/04/14 14:45:53;;;;;;;12.13;1.73;;;;;;;;;;5074625;27;87973;-72
2023/04/14 14:48:20;;;;;;;106.20;4.00;;;;;;;;;;5055157;27;88277;-72
2023/04/14 14:50:46;;;;;;;4.13;1.27;;;;;;;;;;5055853;27;89552;-71
2023/04/14 14:53:12;;;;;;;3.58;1.10;;;;;;;;;;5073836;27;90225;-71
2023/04/14 14:55:39;;;;;;;3.85;1.02;;;;;;;;;;5074060;27;86901;-71
2023/04/14 14:58:07;;;;;;;3.40;1.10;;;;;;;;;;5074686;27;88814;-71
2023/04/14 15:00:34;;;;;;;2.95;1.00;;;;;;;;;;5072246;27;87753;-72
2023/04/14 15:03:00;;;;;;;2.90;1.15;;;;;;;;;;5077457;27;88468;-72
2023/04/14 15:05:27;;;;;;;5.38;1.27;;;;;;;;;;5071373;27;86857;-71
2023/04/14 15:07:53;;;;;;;4.20;1.17;;;;;;;;;;5065963;27;87231;-72
2023/04/14 15:10:19;;;;;;;4.70;1.20;;;;;;;;;;5055695;27;87532;-72
2023/04/14 15:12:46;;;;;;;4.95;1.25;;;;;;;;;;5072414;27;88038;-70
2023/04/14 15:15:12;;;;;;;5.35;1.40;;;;;;;;;;5066084;27;87366;-70
2023/04/14 15:17:38;;;;;;;3.17;1.38;;;;;;;;;;5064035;27;87615;-71
2023/04/14 15:20:05;;;;;;;3.90;1.25;;;;;;;;;;5070541;27;88008;-71
2023/04/14 15:22:32;;;;;;;2.50;1.20;;;;;;;;;;5070317;27;87606;-71
2023/04/14 15:24:58;;;;;;;2.42;1.10;;;;;;;;;;5077531;27;87834;-70
2023/04/14 15:27:24;;;;;;;5.50;1.58;;;;;;;;;;5074817;27;87248;-70
2023/04/14 15:29:50;;;;;;;4.60;1.05;;;;;;;;;;5075239;27;88601;-70
2023/04/14 15:32:23;;;;;;;3.80;1.88;;;;;;;;;;5072252;27;86815;-70
2023/04/14 15:34:53;;;;;;;2.95;1.45;;;;;;;;;;5073449;27;88464;-70
2023/04/14 15:37:19;;;;;;;5.95;1.45;;;;;;;;;;5074927;27;88722;-70
2023/04/14 15:39:46;;;;;;;2.67;1.10;;;;;;;;;;5062713;27;88044;-70
2023/04/14 15:42:12;;;;;;;4.05;1.48;;;;;;;;;;5058054;27;87250;-70
2023/04/14 15:44:39;;;;;;;5.72;1.45;;;;;;;;;;5044358;27;88470;-70
2023/04/14 15:47:05;;;;;;;3.28;1.40;;;;;;;;;;5050269;27;86836;-71
2023/04/14 15:49:31;;;;;;;3.38;1.35;;;;;;;;;;5040134;27;87879;-70
2023/04/14 15:51:58;;;;;;;3.60;1.55;;;;;;;;;;5039206;27;87693;-71
2023/04/14 15:54:25;;;;;;;8.00;1.65;;;;;;;;;;5030303;27;88235;-71
2023/04/14 15:56:51;;;;;;;5.10;1.52;;;;;;;;;;5039274;27;86826;-71
2023/04/14 15:59:19;;;;;;;5.53;1.42;;;;;;;;;;5032107;27;87570;-72
2023/04/14 16:01:45;;;;;;;5.50;1.40;;;;;;;;;;5037548;28;87693;-72
2023/04/14 16:04:12;;;;;;;7.40;1.42;;;;;;;;;;5035771;27;87668;-72
2023/04/14 16:06:38;;;;;;;8.57;1.50;;;;;;;;;;5039586;27;88607;-72
2023/04/14 16:09:05;;;;;;;4.10;1.77;;;;;;;;;;5041725;27;87242;-71
2023/04/14 16:11:32;;;;;;;3.78;1.73;;;;;;;;;;5038701;27;87996;-71
2023/04/14 16:13:58;;;;;;;7.65;3.55;;;;;;;;;;5033985;27;88461;-70
2023/04/14 16:16:25;;;;;;;5.07;1.98;;;;;;;;;;5027553;28;88670;-71
2023/04/14 16:18:51;;;;;;;6.93;2.28;;;;;;;;;;5029443;28;89049;-71
2023/04/14 16:21:18;;;;;;;9.27;1.80;;;;;;;;;;5035220;28;88297;-71
2023/04/14 16:23:44;;;;;;;6.35;1.50;;;;;;;;;;5033459;27;87708;-71
2023/04/14 16:26:11;;;;;;;7.50;1.40;;;;;;;;;;5038685;27;87594;-71
2023/04/14 16:28:37;;;;;;;6.45;2.00;;;;;;;;;;5039531;28;88964;-71
2023/04/14 16:31:04;;;;;;;12.27;2.05;;;;;;;;;;5034698;28;88502;-71
2023/04/14 16:33:31;;;;;;;10.07;1.60;;;;;;;;;;5026360;28;88672;-71
2023/04/14 16:36:01;;;;;;;4.88;2.00;;;;;;;;;;5040110;28;88845;-71
2023/04/14 16:38:27;;;;;;;8.25;1.95;;;;;;;;;;5038448;28;88821;-71
2023/04/14 16:40:55;;;;;;;7.57;1.48;;;;;;;;;;5039265;27;87476;-71
2023/04/14 16:43:22;;;;;;;10.27;1.67;;;;;;;;;;5069747;27;91022;-71
2023/04/14 16:45:49;;;;;;;3.92;1.33;;;;;;;;;;5059729;27;87945;-71
2023/04/14 16:48:15;;;;;;;4.65;1.10;;;;;;;;;;5060057;27;87122;-72
2023/04/14 16:50:45;;;;;;;4.70;1.58;;;;;;;;;;5077272;27;89093;-71
2023/04/14 16:53:12;;;;;;;7.97;1.65;;;;;;;;;;5082862;27;86734;-72
2023/04/14 16:55:38;;;;;;;7.43;1.92;;;;;;;;;;5080248;27;87377;-71
2023/04/14 16:58:05;;;;;;;6.68;1.88;;;;;;;;;;5079678;27;87972;-71
2023/04/14 17:00:31;;;;;;;8.25;2.22;;;;;;;;;;5063672;27;88345;-71
2023/04/14 17:02:58;;;;;;;9.45;1.80;;;;;;;;;;5077307;27;86833;-71
2023/04/14 17:05:24;;;;;;;5.47;1.70;;;;;;;;;;5059005;27;87019;-71
2023/04/14 17:07:51;;;;;;;4.82;1.50;;;;;;;;;;5079475;27;87193;-71
2023/04/14 17:10:17;;;;;;;6.65;1.58;;;;;;;;;;5078685;27;87405;-71
2023/04/14 17:12:45;;;;;;;15.15;1.98;;;;;;;;;;5078909;27;87806;-71
2023/04/14 17:15:11;;;;;;;5.85;1.55;;;;;;;;;;5079455;27;87675;-71
2023/04/14 17:17:38;;;;;;;8.65;1.85;;;;;;;;;;5061788;27;88027;-71
2023/04/14 17:20:09;;;;;;;10.45;1.48;;;;;;;;;;5079042;27;87437;-71
2023/04/14 17:22:36;;;;;;;8.55;1.50;;;;;;;;;;5062138;27;87677;-71
2023/04/14 17:25:03;;;;;;;8.32;1.33;;;;;;;;;;5072690;27;88764;-71
2023/04/14 17:27:29;;;;;;;10.48;1.80;;;;;;;;;;5067878;27;87069;-71
2023/04/14 17:29:57;;;;;;;7.57;1.77;;;;;;;;;;5061216;27;87138;-71
2023/04/14 17:32:23;;;;;;;8.88;1.77;;;;;;;;;;5059199;27;87830;-73
2023/04/14 17:34:50;;;;;;;13.30;2.83;;;;;;;;;;5065598;27;87348;-71
2023/04/14 17:37:16;;;;;;;9.75;3.20;;;;;;;;;;5059293;27;87826;-71
2023/04/14 17:39:43;;;;;;;9.40;2.65;;;;;;;;;;5046644;27;87125;-71
2023/04/14 17:42:10;;;;;;;10.07;3.13;;;;;;;;;;5058315;27;87907;-71
2023/04/14 17:44:36;;;;;;;8.10;3.05;;;;;;;;;;5077346;27;90478;-71
2023/04/14 17:47:11;;;;;;;8.13;2.88;;;;;;;;;;5051011;27;88776;-71
2023/04/14 17:49:37;;;;;;;11.10;2.72;;;;;;;;;;5077922;27;87512;-71
2023/04/14 17:52:05;;;;;;;11.07;1.88;;;;;;;;;;5078607;27;88669;-71
2023/04/14 17:54:32;;;;;;;5.80;2.10;;;;;;;;;;5079285;27;87331;-71
2023/04/14 17:56:58;;;;;;;10.23;2.78;;;;;;;;;;5073771;27;87693;-72
2023/04/14 17:59:25;;;;;;;4.47;2.00;;;;;;;;;;5067997;27;87652;-72
2023/04/14 18:01:51;;;;;;;10.27;2.22;;;;;;;;;;5078396;27;87308;-72
2023/04/14 18:04:17;;;;;;;8.93;2.60;;;;;;;;;;5079106;27;87536;-73
2023/04/14 18:06:44;;;;;;;9.48;2.58;;;;;;;;;;5075518;27;87196;-72
2023/04/14 18:09:11;;;;;;;4.28;2.00;;;;;;;;;;5063902;27;87506;-72
2023/04/14 18:11:37;;;;;;;5.10;2.30;;;;;;;;;;5079280;27;87753;-72
2023/04/14 18:14:03;;;;;;;4.35;1.88;;;;;;;;;;5078993;27;87477;-72
2023/04/14 18:16:30;;;;;;;7.00;2.45;;;;;;;;;;5072407;27;89154;-72
2023/04/14 18:18:56;;;;;;;10.52;2.17;;;;;;;;;;5077158;27;88745;-71
2023/04/14 18:21:22;;;;;;;9.35;2.25;;;;;;;;;;5069724;27;87463;-72
2023/04/14 18:23:49;;;;;;;6.38;2.08;;;;;;;;;;5069443;27;88095;-71
2023/04/14 18:26:18;;;;;;;5.20;2.15;;;;;;;;;;5076295;27;88103;-71
2023/04/14 18:28:47;;;;;;;9.52;2.00;;;;;;;;;;5078081;27;87263;-71
2023/04/14 18:31:14;;;;;;;3.75;1.40;;;;;;;;;;5079049;27;87811;-71
2023/04/14 18:33:40;;;;;;;6.15;1.88;;;;;;;;;;5077922;27;87421;-70
2023/04/14 18:36:08;;;;;;;7.78;1.70;;;;;;;;;;5059062;27;88208;-73
2023/04/14 18:38:35;;;;;;;7.40;1.60;;;;;;;;;;5064362;27;89358;-74
2023/04/14 18:41:03;;;;;;;6.85;1.40;;;;;;;;;;5079482;27;86897;-74
2023/04/14 18:43:31;;;;;;;5.03;1.48;;;;;;;;;;5079490;27;88962;-73
2023/04/14 18:45:58;;;;;;;2.88;1.30;;;;;;;;;;5078300;27;87050;-73
2023/04/14 18:48:24;;;;;;;5.32;1.95;;;;;;;;;;5051237;27;89096;-73
2023/04/14 18:51:02;;;;;;;10.45;1.80;;;;;;;;;;5060338;27;91002;-74
2023/04/14 18:53:30;;;;;;;6.45;1.88;;;;;;;;;;5060390;27;88119;-73
2023/04/14 18:55:56;;;;;;;4.90;1.52;;;;;;;;;;5060013;27;88688;-73
2023/04/14 18:58:24;;;;;;;7.13;1.65;;;;;;;;;;5070716;27;90374;-74
2023/04/14 19:00:50;;;;;;;3.35;1.33;;;;;;;;;;5069174;27;89507;-74
2023/04/14 19:03:17;;;;;;;9.02;2.00;;;;;;;;;;5060062;27;88032;-73
2023/04/14 19:05:46;;;;;;;6.07;2.08;;;;;;;;;;5059985;27;88785;-73
2023/04/14 19:08:12;;;;;;;8.65;1.73;;;;;;;;;;5050161;27;90197;-74
2023/04/14 19:10:39;;;;;;;12.63;1.75;;;;;;;;;;5064950;27;88025;-74
2023/04/14 19:13:05;;;;;;;7.50;2.13;;;;;;;;;;5057142;27;88972;-74